sensor_id;sensor_type;location;lat;lon;timestamp;pressure;altitude;pressure_sealevel;temperature;humidity
57847;BME280;43675;50.030;21.952;2023-02-26T00:00:05;97295.17;;;2.33;75.68
57847;BME280;43675;50.030;21.952;2023-02-26T00:02:53;97310.44;;;2.32;75.72
57847;BME280;43675;50.030;21.952;2023-02-26T00:05:19;97301.95;;;2.42;75.49
57847;BME280;43675;50.030;21.952;2023-02-26T00:07:46;97301.05;;;2.52;75.64
57847;BME280;43675;50.030;21.952;2023-02-26T00:10:13;97301.29;;;2.46;75.33
57847;BME280;43675;50.030;21.952;2023-02-26T00:12:40;97299.88;;;2.29;75.71
57847;BME280;43675;50.030;21.952;2023-02-26T00:15:07;97299.15;;;2.15;75.53
57847;BME280;43675;50.030;21.952;2023-02-26T00:20:09;97303.06;;;1.96;76.03
57847;BME280;43675;50.030;21.952;2023-02-26T00:22:40;97304.00;;;1.89;76.13
57847;BME280;43675;50.030;21.952;2023-02-26T00:25:08;97311.45;;;1.84;76.43
57847;BME280;43675;50.030;21.952;2023-02-26T00:27:35;97316.71;;;1.82;76.01
57847;BME280;43675;50.030;21.952;2023-02-26T00:30:06;97318.94;;;1.79;76.40
57847;BME280;43675;50.030;21.952;2023-02-26T00:32:34;97321.61;;;1.78;76.31
57847;BME280;43675;50.030;21.952;2023-02-26T00:35:01;97327.96;;;1.76;76.33
57847;BME280;43675;50.030;21.952;2023-02-26T00:37:47;97330.70;;;1.73;76.25
57847;BME280;43675;50.030;21.952;2023-02-26T00:40:22;97333.95;;;1.68;76.28
57847;BME280;43675;50.030;21.952;2023-02-26T00:42:51;97339.23;;;1.67;76.22
57847;BME280;43675;50.030;21.952;2023-02-26T00:45:18;97350.11;;;1.66;76.21
57847;BME280;43675;50.030;21.952;2023-02-26T00:47:54;97348.33;;;1.66;76.48
57847;BME280;43675;50.030;21.952;2023-02-26T00:50:26;97349.98;;;1.67;76.47
57847;BME280;43675;50.030;21.952;2023-02-26T00:53:14;97343.40;;;1.66;76.38
57847;BME280;43675;50.030;21.952;2023-02-26T00:55:44;97348.98;;;1.64;76.38
57847;BME280;43675;50.030;21.952;2023-02-26T00:58:10;97350.53;;;1.62;76.39
57847;BME280;43675;50.030;21.952;2023-02-26T01:00:37;97354.73;;;1.59;76.55
57847;BME280;43675;50.030;21.952;2023-02-26T01:03:04;97363.25;;;1.56;76.57
57847;BME280;43675;50.030;21.952;2023-02-26T01:05:31;97361.91;;;1.52;76.61
57847;BME280;43675;50.030;21.952;2023-02-26T01:08:19;97362.23;;;1.51;76.71
57847;BME280;43675;50.030;21.952;2023-02-26T01:10:49;97367.95;;;1.50;76.71
57847;BME280;43675;50.030;21.952;2023-02-26T01:13:16;97367.66;;;1.53;76.86
57847;BME280;43675;50.030;21.952;2023-02-26T01:15:46;97366.39;;;1.52;76.70
57847;BME280;43675;50.030;21.952;2023-02-26T01:18:19;97367.14;;;1.50;76.74
57847;BME280;43675;50.030;21.952;2023-02-26T01:20:55;97370.98;;;1.47;76.83
57847;BME280;43675;50.030;21.952;2023-02-26T01:23:30;97362.60;;;1.42;76.94
57847;BME280;43675;50.030;21.952;2023-02-26T01:25:58;97358.98;;;1.38;77.05
57847;BME280;43675;50.030;21.952;2023-02-26T01:28:27;97368.00;;;1.37;77.22
57847;BME280;43675;50.030;21.952;2023-02-26T01:30:57;97371.19;;;1.34;77.16
57847;BME280;43675;50.030;21.952;2023-02-26T01:33:38;97369.80;;;1.31;77.33
57847;BME280;43675;50.030;21.952;2023-02-26T01:36:08;97375.89;;;1.30;77.44
57847;BME280;43675;50.030;21.952;2023-02-26T01:41:46;97378.91;;;1.30;77.47
57847;BME280;43675;50.030;21.952;2023-02-26T01:44:25;97373.54;;;1.29;77.40
57847;BME280;43675;50.030;21.952;2023-02-26T01:49:28;97359.18;;;1.30;77.63
57847;BME280;43675;50.030;21.952;2023-02-26T01:51:57;97352.29;;;1.27;77.62
57847;BME280;43675;50.030;21.952;2023-02-26T01:54:33;97345.15;;;1.25;77.47
57847;BME280;43675;50.030;21.952;2023-02-26T01:59:31;97357.00;;;1.23;77.68
57847;BME280;43675;50.030;21.952;2023-02-26T02:01:59;97362.64;;;1.25;77.79
57847;BME280;43675;50.030;21.952;2023-02-26T02:04:29;97360.31;;;1.25;77.75
57847;BME280;43675;50.030;21.952;2023-02-26T02:06:57;97372.62;;;1.24;77.87
57847;BME280;43675;50.030;21.952;2023-02-26T02:09:23;97382.45;;;1.24;77.80
57847;BME280;43675;50.030;21.952;2023-02-26T02:19:53;97435.06;;;1.23;78.11
57847;BME280;43675;50.030;21.952;2023-02-26T02:22:52;97445.63;;;1.25;78.17
57847;BME280;43675;50.030;21.952;2023-02-26T02:34:40;97442.80;;;1.20;77.73
57847;BME280;43675;50.030;21.952;2023-02-26T02:37:18;97444.52;;;1.24;77.83
57847;BME280;43675;50.030;21.952;2023-02-26T02:40:03;97442.70;;;1.26;77.64
57847;BME280;43675;50.030;21.952;2023-02-26T02:42:44;97446.02;;;1.27;77.68
57847;BME280;43675;50.030;21.952;2023-02-26T02:48:05;97462.21;;;1.25;77.58
57847;BME280;43675;50.030;21.952;2023-02-26T02:50:43;97464.46;;;1.24;77.61
57847;BME280;43675;50.030;21.952;2023-02-26T02:53:25;97465.24;;;1.24;77.56
57847;BME280;43675;50.030;21.952;2023-02-26T02:56:00;97462.67;;;1.24;77.55
57847;BME280;43675;50.030;21.952;2023-02-26T02:58:31;97467.31;;;1.20;77.29
57847;BME280;43675;50.030;21.952;2023-02-26T03:01:03;97466.88;;;1.15;77.44
57847;BME280;43675;50.030;21.952;2023-02-26T03:03:54;97484.29;;;1.10;77.48
57847;BME280;43675;50.030;21.952;2023-02-26T03:06:22;97501.61;;;1.07;77.56
57847;BME280;43675;50.030;21.952;2023-02-26T03:08:50;97510.41;;;1.05;77.60
57847;BME280;43675;50.030;21.952;2023-02-26T03:11:17;97513.96;;;1.03;77.27
57847;BME280;43675;50.030;21.952;2023-02-26T03:13:45;97512.98;;;1.03;77.39
57847;BME280;43675;50.030;21.952;2023-02-26T03:29:49;97564.33;;;1.06;77.23
57847;BME280;43675;50.030;21.952;2023-02-26T03:32:30;97576.04;;;1.10;77.21
57847;BME280;43675;50.030;21.952;2023-02-26T03:35:26;97566.86;;;1.13;76.86
57847;BME280;43675;50.030;21.952;2023-02-26T03:37:59;97577.40;;;1.16;76.77
57847;BME280;43675;50.030;21.952;2023-02-26T03:40:50;97586.73;;;1.18;76.88
57847;BME280;43675;50.030;21.952;2023-02-26T03:45:47;97589.77;;;1.23;76.71
57847;BME280;43675;50.030;21.952;2023-02-26T03:48:20;97590.44;;;1.22;76.79
57847;BME280;43675;50.030;21.952;2023-02-26T03:50:50;97603.52;;;1.23;76.61
57847;BME280;43675;50.030;21.952;2023-02-26T03:53:21;97600.17;;;1.26;76.51
57847;BME280;43675;50.030;21.952;2023-02-26T03:58:20;97596.20;;;1.28;76.31
57847;BME280;43675;50.030;21.952;2023-02-26T04:00:51;97601.52;;;1.25;76.29
57847;BME280;43675;50.030;21.952;2023-02-26T04:03:33;97596.06;;;1.22;76.28
57847;BME280;43675;50.030;21.952;2023-02-26T04:06:03;97597.44;;;1.21;76.06
57847;BME280;43675;50.030;21.952;2023-02-26T04:08:30;97579.34;;;1.19;76.27
57847;BME280;43675;50.030;21.952;2023-02-26T04:10:59;97582.81;;;1.14;75.89
57847;BME280;43675;50.030;21.952;2023-02-26T04:13:30;97578.36;;;1.10;75.94
57847;BME280;43675;50.030;21.952;2023-02-26T04:15:57;97575.13;;;1.06;75.90
57847;BME280;43675;50.030;21.952;2023-02-26T04:18:24;97574.16;;;1.01;75.79
57847;BME280;43675;50.030;21.952;2023-02-26T04:20:50;97565.20;;;0.96;75.73
57847;BME280;43675;50.030;21.952;2023-02-26T04:23:17;97573.14;;;0.91;75.80
57847;BME280;43675;50.030;21.952;2023-02-26T04:25:44;97592.67;;;0.90;75.84
57847;BME280;43675;50.030;21.952;2023-02-26T04:28:11;97596.78;;;0.91;75.77
57847;BME280;43675;50.030;21.952;2023-02-26T04:30:37;97605.09;;;0.90;75.82
57847;BME280;43675;50.030;21.952;2023-02-26T04:33:04;97619.24;;;0.90;75.75
57847;BME280;43675;50.030;21.952;2023-02-26T04:35:30;97635.30;;;0.91;75.73
57847;BME280;43675;50.030;21.952;2023-02-26T04:37:57;97638.30;;;0.91;75.73
57847;BME280;43675;50.030;21.952;2023-02-26T04:40:23;97637.69;;;0.90;75.79
57847;BME280;43675;50.030;21.952;2023-02-26T04:42:50;97650.91;;;0.89;75.88
57847;BME280;43675;50.030;21.952;2023-02-26T04:45:17;97649.55;;;0.87;75.60
57847;BME280;43675;50.030;21.952;2023-02-26T04:47:43;97640.54;;;0.86;75.75
57847;BME280;43675;50.030;21.952;2023-02-26T04:50:10;97632.76;;;0.85;75.74
57847;BME280;43675;50.030;21.952;2023-02-26T04:52:37;97626.67;;;0.82;75.69
57847;BME280;43675;50.030;21.952;2023-02-26T04:55:04;97619.25;;;0.81;75.72
57847;BME280;43675;50.030;21.952;2023-02-26T04:57:30;97612.70;;;0.80;75.64
57847;BME280;43675;50.030;21.952;2023-02-26T04:59:57;97638.80;;;0.78;75.71
57847;BME280;43675;50.030;21.952;2023-02-26T05:02:24;97654.98;;;0.77;75.77
57847;BME280;43675;50.030;21.952;2023-02-26T05:04:50;97657.20;;;0.76;75.64
57847;BME280;43675;50.030;21.952;2023-02-26T05:07:17;97659.88;;;0.76;75.75
57847;BME280;43675;50.030;21.952;2023-02-26T05:09:43;97661.45;;;0.76;75.86
57847;BME280;43675;50.030;21.952;2023-02-26T05:12:10;97669.34;;;0.76;75.90
57847;BME280;43675;50.030;21.952;2023-02-26T05:14:36;97661.48;;;0.77;75.84
57847;BME280;43675;50.030;21.952;2023-02-26T05:17:03;97666.48;;;0.79;75.76
57847;BME280;43675;50.030;21.952;2023-02-26T05:19:29;97667.42;;;0.80;75.94
57847;BME280;43675;50.030;21.952;2023-02-26T05:21:56;97667.58;;;0.79;75.78
57847;BME280;43675;50.030;21.952;2023-02-26T05:24:23;97682.77;;;0.79;75.70
57847;BME280;43675;50.030;21.952;2023-02-26T05:26:49;97685.15;;;0.78;75.50
57847;BME280;43675;50.030;21.952;2023-02-26T05:29:16;97664.32;;;0.77;75.70
57847;BME280;43675;50.030;21.952;2023-02-26T05:31:42;97665.43;;;0.75;75.79
57847;BME280;43675;50.030;21.952;2023-02-26T05:34:09;97686.52;;;0.75;75.45
57847;BME280;43675;50.030;21.952;2023-02-26T05:36:35;97686.20;;;0.75;75.64
57847;BME280;43675;50.030;21.952;2023-02-26T05:39:02;97685.67;;;0.73;75.64
57847;BME280;43675;50.030;21.952;2023-02-26T05:41:29;97686.50;;;0.72;75.64
57847;BME280;43675;50.030;21.952;2023-02-26T05:43:55;97685.27;;;0.71;75.58
57847;BME280;43675;50.030;21.952;2023-02-26T05:46:22;97693.26;;;0.70;75.69
57847;BME280;43675;50.030;21.952;2023-02-26T05:48:48;97695.38;;;0.71;75.56
57847;BME280;43675;50.030;21.952;2023-02-26T05:51:15;97697.96;;;0.74;75.51
57847;BME280;43675;50.030;21.952;2023-02-26T05:53:41;97693.45;;;0.74;75.48
57847;BME280;43675;50.030;21.952;2023-02-26T05:56:08;97696.33;;;0.75;75.55
57847;BME280;43675;50.030;21.952;2023-02-26T05:58:34;97696.17;;;0.77;75.48
57847;BME280;43675;50.030;21.952;2023-02-26T06:01:01;97708.42;;;0.77;75.39
57847;BME280;43675;50.030;21.952;2023-02-26T06:03:28;97716.70;;;0.79;75.57
57847;BME280;43675;50.030;21.952;2023-02-26T06:05:54;97719.42;;;0.81;75.39
57847;BME280;43675;50.030;21.952;2023-02-26T06:08:21;97722.94;;;0.84;75.43
57847;BME280;43675;50.030;21.952;2023-02-26T06:10:49;97737.30;;;0.86;75.41
57847;BME280;43675;50.030;21.952;2023-02-26T06:13:16;97749.67;;;0.89;75.52
57847;BME280;43675;50.030;21.952;2023-02-26T06:15:43;97753.89;;;0.92;75.40
57847;BME280;43675;50.030;21.952;2023-02-26T06:18:10;97760.09;;;0.94;75.18
57847;BME280;43675;50.030;21.952;2023-02-26T06:20:36;97778.16;;;0.94;74.94
57847;BME280;43675;50.030;21.952;2023-02-26T06:23:03;97781.67;;;0.94;75.05
57847;BME280;43675;50.030;21.952;2023-02-26T06:25:29;97798.36;;;0.98;75.09
57847;BME280;43675;50.030;21.952;2023-02-26T06:27:56;97806.68;;;1.02;74.94
57847;BME280;43675;50.030;21.952;2023-02-26T06:30:22;97813.02;;;1.07;75.05
57847;BME280;43675;50.030;21.952;2023-02-26T06:32:49;97813.33;;;1.10;74.62
57847;BME280;43675;50.030;21.952;2023-02-26T06:35:15;97813.35;;;1.13;74.74
57847;BME280;43675;50.030;21.952;2023-02-26T06:37:42;97815.19;;;1.14;74.61
57847;BME280;43675;50.030;21.952;2023-02-26T06:40:09;97816.41;;;1.14;74.62
57847;BME280;43675;50.030;21.952;2023-02-26T06:42:36;97828.39;;;1.15;74.70
57847;BME280;43675;50.030;21.952;2023-02-26T06:45:03;97830.66;;;1.17;74.41
57847;BME280;43675;50.030;21.952;2023-02-26T06:47:30;97836.98;;;1.20;74.69
57847;BME280;43675;50.030;21.952;2023-02-26T06:49:56;97848.65;;;1.23;74.33
57847;BME280;43675;50.030;21.952;2023-02-26T06:52:23;97854.27;;;1.24;74.49
57847;BME280;43675;50.030;21.952;2023-02-26T06:54:49;97849.85;;;1.26;74.18
57847;BME280;43675;50.030;21.952;2023-02-26T06:57:16;97847.80;;;1.27;74.43
57847;BME280;43675;50.030;21.952;2023-02-26T06:59:42;97838.75;;;1.26;74.10
57847;BME280;43675;50.030;21.952;2023-02-26T07:02:15;97830.42;;;1.25;74.02
57847;BME280;43675;50.030;21.952;2023-02-26T07:04:42;97839.36;;;1.24;73.98
57847;BME280;43675;50.030;21.952;2023-02-26T07:07:09;97843.31;;;1.23;74.02
57847;BME280;43675;50.030;21.952;2023-02-26T07:09:36;97846.80;;;1.22;73.96
57847;BME280;43675;50.030;21.952;2023-02-26T07:12:03;97850.42;;;1.23;74.02
57847;BME280;43675;50.030;21.952;2023-02-26T07:14:29;97855.39;;;1.21;73.90
57847;BME280;43675;50.030;21.952;2023-02-26T07:16:56;97863.35;;;1.18;74.01
57847;BME280;43675;50.030;21.952;2023-02-26T07:19:22;97865.66;;;1.14;73.83
57847;BME280;43675;50.030;21.952;2023-02-26T07:21:49;97865.80;;;1.12;73.76
57847;BME280;43675;50.030;21.952;2023-02-26T07:24:16;97868.09;;;1.12;73.81
57847;BME280;43675;50.030;21.952;2023-02-26T07:26:42;97871.33;;;1.16;73.80
57847;BME280;43675;50.030;21.952;2023-02-26T07:29:09;97871.67;;;1.20;73.58
57847;BME280;43675;50.030;21.952;2023-02-26T07:31:35;97869.63;;;1.24;73.47
57847;BME280;43675;50.030;21.952;2023-02-26T07:34:02;97873.42;;;1.25;73.47
57847;BME280;43675;50.030;21.952;2023-02-26T07:36:29;97875.77;;;1.23;73.51
57847;BME280;43675;50.030;21.952;2023-02-26T07:38:56;97877.44;;;1.22;73.51
57847;BME280;43675;50.030;21.952;2023-02-26T07:41:22;97883.62;;;1.22;73.30
57847;BME280;43675;50.030;21.952;2023-02-26T07:43:49;97885.47;;;1.21;73.10
57847;BME280;43675;50.030;21.952;2023-02-26T07:46:16;97889.11;;;1.19;73.16
57847;BME280;43675;50.030;21.952;2023-02-26T07:48:42;97897.84;;;1.20;72.87
57847;BME280;43675;50.030;21.952;2023-02-26T07:51:09;97906.23;;;1.23;72.78
57847;BME280;43675;50.030;21.952;2023-02-26T07:53:36;97910.14;;;1.27;72.74
57847;BME280;43675;50.030;21.952;2023-02-26T07:56:03;97913.77;;;1.28;72.52
57847;BME280;43675;50.030;21.952;2023-02-26T07:58:29;97918.86;;;1.28;72.56
57847;BME280;43675;50.030;21.952;2023-02-26T08:00:57;97920.46;;;1.26;72.29
57847;BME280;43675;50.030;21.952;2023-02-26T08:03:23;97926.89;;;1.27;72.22
57847;BME280;43675;50.030;21.952;2023-02-26T08:05:50;97935.20;;;1.30;72.22
57847;BME280;43675;50.030;21.952;2023-02-26T08:08:16;97950.23;;;1.33;71.96
57847;BME280;43675;50.030;21.952;2023-02-26T08:10:43;97957.35;;;1.37;71.89
57847;BME280;43675;50.030;21.952;2023-02-26T08:13:09;97972.00;;;1.43;71.90
57847;BME280;43675;50.030;21.952;2023-02-26T08:15:36;97970.80;;;1.47;71.46
57847;BME280;43675;50.030;21.952;2023-02-26T08:18:03;97975.96;;;1.50;71.19
57847;BME280;43675;50.030;21.952;2023-02-26T08:20:29;97982.28;;;1.55;71.14
57847;BME280;43675;50.030;21.952;2023-02-26T08:22:56;97985.77;;;1.62;71.05
57847;BME280;43675;50.030;21.952;2023-02-26T08:25:23;97993.67;;;1.73;70.99
57847;BME280;43675;50.030;21.952;2023-02-26T08:27:49;97996.19;;;1.77;70.46
57847;BME280;43675;50.030;21.952;2023-02-26T08:30:16;97989.67;;;1.79;70.26
57847;BME280;43675;50.030;21.952;2023-02-26T08:32:43;97992.77;;;1.86;70.40
57847;BME280;43675;50.030;21.952;2023-02-26T08:35:09;97993.17;;;2.07;70.41
57847;BME280;43675;50.030;21.952;2023-02-26T08:37:36;97998.41;;;2.13;69.71
57847;BME280;43675;50.030;21.952;2023-02-26T08:40:07;98002.38;;;2.14;69.55
57847;BME280;43675;50.030;21.952;2023-02-26T08:42:34;98007.34;;;2.30;69.49
57847;BME280;43675;50.030;21.952;2023-02-26T08:45:02;98017.07;;;2.42;69.36
57847;BME280;43675;50.030;21.952;2023-02-26T08:47:28;98020.92;;;2.53;68.89
57847;BME280;43675;50.030;21.952;2023-02-26T08:49:55;98021.25;;;2.66;68.69
57847;BME280;43675;50.030;21.952;2023-02-26T08:52:21;98024.40;;;2.73;68.43
57847;BME280;43675;50.030;21.952;2023-02-26T08:54:48;98028.75;;;2.77;67.96
57847;BME280;43675;50.030;21.952;2023-02-26T08:57:15;98024.48;;;2.78;67.78
57847;BME280;43675;50.030;21.952;2023-02-26T08:59:41;98024.19;;;2.77;67.82
57847;BME280;43675;50.030;21.952;2023-02-26T09:02:12;98029.09;;;2.78;67.28
57847;BME280;43675;50.030;21.952;2023-02-26T09:04:39;98034.77;;;2.76;67.36
57847;BME280;43675;50.030;21.952;2023-02-26T09:07:06;98034.25;;;2.71;67.03
57847;BME280;43675;50.030;21.952;2023-02-26T09:09:32;98034.66;;;2.69;67.33
57847;BME280;43675;50.030;21.952;2023-02-26T09:11:59;98033.21;;;2.68;67.27
57847;BME280;43675;50.030;21.952;2023-02-26T09:14:25;98041.55;;;2.69;67.17
57847;BME280;43675;50.030;21.952;2023-02-26T09:16:52;98046.59;;;2.69;67.00
57847;BME280;43675;50.030;21.952;2023-02-26T09:19:19;98053.33;;;2.57;66.96
57847;BME280;43675;50.030;21.952;2023-02-26T09:21:45;98054.95;;;2.37;67.36
57847;BME280;43675;50.030;21.952;2023-02-26T09:24:12;98053.95;;;2.24;67.55
57847;BME280;43675;50.030;21.952;2023-02-26T09:26:39;98064.70;;;2.17;67.60
57847;BME280;43675;50.030;21.952;2023-02-26T09:29:06;98065.23;;;2.09;67.51
57847;BME280;43675;50.030;21.952;2023-02-26T09:31:33;98070.36;;;2.02;67.30
57847;BME280;43675;50.030;21.952;2023-02-26T09:33:59;98075.80;;;1.94;67.73
57847;BME280;43675;50.030;21.952;2023-02-26T09:36:26;98081.18;;;1.90;67.81
57847;BME280;43675;50.030;21.952;2023-02-26T09:38:53;98083.20;;;1.89;67.89
57847;BME280;43675;50.030;21.952;2023-02-26T09:41:33;98087.73;;;1.95;67.77
57847;BME280;43675;50.030;21.952;2023-02-26T09:44:26;98093.08;;;1.97;67.75
57847;BME280;43675;50.030;21.952;2023-02-26T09:55:22;98105.97;;;1.99;67.26
57847;BME280;43675;50.030;21.952;2023-02-26T09:57:46;98106.45;;;1.85;67.65
57847;BME280;43675;50.030;21.952;2023-02-26T10:03:30;98104.84;;;1.84;68.99
57847;BME280;43675;50.030;21.952;2023-02-26T10:11:30;98108.66;;;2.11;68.87
57847;BME280;43675;50.030;21.952;2023-02-26T10:14:09;98116.15;;;2.33;68.86
57847;BME280;43675;50.030;21.952;2023-02-26T10:16:41;98117.45;;;2.53;68.89
57847;BME280;43675;50.030;21.952;2023-02-26T10:19:18;98121.76;;;2.71;68.17
57847;BME280;43675;50.030;21.952;2023-02-26T10:21:51;98127.50;;;2.85;67.71
57847;BME280;43675;50.030;21.952;2023-02-26T10:27:11;98142.44;;;2.96;67.41
57847;BME280;43675;50.030;21.952;2023-02-26T10:29:46;98147.58;;;3.04;67.12
57847;BME280;43675;50.030;21.952;2023-02-26T10:32:24;98154.64;;;3.09;67.19
57847;BME280;43675;50.030;21.952;2023-02-26T10:34:54;98157.25;;;3.17;67.30
57847;BME280;43675;50.030;21.952;2023-02-26T10:40:33;98162.23;;;3.13;66.59
57847;BME280;43675;50.030;21.952;2023-02-26T10:43:20;98168.80;;;3.09;66.08
57847;BME280;43675;50.030;21.952;2023-02-26T10:51:18;98172.50;;;2.73;66.41
57847;BME280;43675;50.030;21.952;2023-02-26T10:53:53;98170.23;;;2.60;66.78
57847;BME280;43675;50.030;21.952;2023-02-26T10:56:28;98175.23;;;2.53;66.92
57847;BME280;43675;50.030;21.952;2023-02-26T10:58:55;98183.27;;;2.63;66.92
57847;BME280;43675;50.030;21.952;2023-02-26T11:01:24;98187.00;;;2.79;67.08
57847;BME280;43675;50.030;21.952;2023-02-26T11:04:00;98188.39;;;2.96;66.83
57847;BME280;43675;50.030;21.952;2023-02-26T11:06:34;98198.91;;;2.98;66.37
57847;BME280;43675;50.030;21.952;2023-02-26T11:09:06;98201.81;;;2.92;66.05
57847;BME280;43675;50.030;21.952;2023-02-26T11:11:40;98200.83;;;2.86;66.43
57847;BME280;43675;50.030;21.952;2023-02-26T11:14:08;98202.72;;;2.90;66.26
57847;BME280;43675;50.030;21.952;2023-02-26T11:16:41;98210.63;;;2.92;66.32
57847;BME280;43675;50.030;21.952;2023-02-26T11:19:08;98214.11;;;2.86;66.15
57847;BME280;43675;50.030;21.952;2023-02-26T11:21:39;98216.06;;;2.79;66.04
57847;BME280;43675;50.030;21.952;2023-02-26T11:26:43;98213.58;;;2.77;66.53
57847;BME280;43675;50.030;21.952;2023-02-26T11:29:18;98220.75;;;2.85;66.67
57847;BME280;43675;50.030;21.952;2023-02-26T11:31:50;98220.43;;;2.97;66.38
57847;BME280;43675;50.030;21.952;2023-02-26T11:34:21;98222.79;;;2.97;66.09
57847;BME280;43675;50.030;21.952;2023-02-26T11:36:49;98226.20;;;2.87;66.49
57847;BME280;43675;50.030;21.952;2023-02-26T11:39:20;98226.73;;;2.96;66.39
57847;BME280;43675;50.030;21.952;2023-02-26T11:41:48;98233.50;;;2.99;66.39
57847;BME280;43675;50.030;21.952;2023-02-26T11:44:29;98234.83;;;2.94;66.30
57847;BME280;43675;50.030;21.952;2023-02-26T11:47:02;98230.41;;;2.92;66.44
57847;BME280;43675;50.030;21.952;2023-02-26T11:49:29;98230.38;;;3.18;66.35
57847;BME280;43675;50.030;21.952;2023-02-26T11:54:37;98228.09;;;3.64;65.47
57847;BME280;43675;50.030;21.952;2023-02-26T11:57:06;98227.48;;;3.79;65.13
57847;BME280;43675;50.030;21.952;2023-02-26T11:59:38;98234.52;;;3.71;65.25
57847;BME280;43675;50.030;21.952;2023-02-26T12:02:11;98238.06;;;3.58;65.20
57847;BME280;43675;50.030;21.952;2023-02-26T12:04:42;98241.77;;;3.53;65.44
57847;BME280;43675;50.030;21.952;2023-02-26T12:07:13;98242.89;;;3.60;65.45
57847;BME280;43675;50.030;21.952;2023-02-26T12:09:41;98248.76;;;3.70;65.25
57847;BME280;43675;50.030;21.952;2023-02-26T12:20:24;98255.27;;;3.86;64.18
57847;BME280;43675;50.030;21.952;2023-02-26T12:36:59;98278.20;;;3.14;63.86
57847;BME280;43675;50.030;21.952;2023-02-26T12:40:00;98288.02;;;3.10;64.31
57847;BME280;43675;50.030;21.952;2023-02-26T12:43:06;98286.95;;;3.09;64.69
57847;BME280;43675;50.030;21.952;2023-02-26T12:49:11;98296.86;;;2.69;65.88
57847;BME280;43675;50.030;21.952;2023-02-26T12:54:56;98307.20;;;2.48;66.02
57847;BME280;43675;50.030;21.952;2023-02-26T12:57:56;98303.25;;;2.42;66.03
57847;BME280;43675;50.030;21.952;2023-02-26T13:11:40;98322.59;;;3.49;64.82
57847;BME280;43675;50.030;21.952;2023-02-26T13:21:45;98326.02;;;3.97;63.45
57847;BME280;43675;50.030;21.952;2023-02-26T13:24:21;98328.70;;;3.92;62.97
57847;BME280;43675;50.030;21.952;2023-02-26T13:26:52;98333.10;;;3.79;62.70
57847;BME280;43675;50.030;21.952;2023-02-26T13:29:33;98338.35;;;3.71;62.82
57847;BME280;43675;50.030;21.952;2023-02-26T13:32:13;98337.69;;;3.63;63.24
57847;BME280;43675;50.030;21.952;2023-02-26T13:34:49;98341.45;;;3.76;63.34
57847;BME280;43675;50.030;21.952;2023-02-26T13:37:34;98341.25;;;3.94;63.17
57847;BME280;43675;50.030;21.952;2023-02-26T13:51:56;98358.45;;;3.94;63.08
57847;BME280;43675;50.030;21.952;2023-02-26T13:59:28;98366.70;;;3.56;63.74
57847;BME280;43675;50.030;21.952;2023-02-26T14:02:01;98369.75;;;3.42;63.69
57847;BME280;43675;50.030;21.952;2023-02-26T14:04:30;98371.51;;;3.33;63.94
57847;BME280;43675;50.030;21.952;2023-02-26T14:06:58;98372.98;;;3.30;64.01
57847;BME280;43675;50.030;21.952;2023-02-26T14:09:35;98371.61;;;3.38;63.90
57847;BME280;43675;50.030;21.952;2023-02-26T14:17:29;98383.33;;;3.14;63.94
57847;BME280;43675;50.030;21.952;2023-02-26T14:22:32;98398.29;;;2.54;64.97
57847;BME280;43675;50.030;21.952;2023-02-26T14:27:43;98419.95;;;1.64;66.79
57847;BME280;43675;50.030;21.952;2023-02-26T14:35:25;98437.23;;;0.84;69.48
57847;BME280;43675;50.030;21.952;2023-02-26T14:38:17;98450.95;;;0.51;70.21
57847;BME280;43675;50.030;21.952;2023-02-26T14:41:04;98454.24;;;0.29;71.08
57847;BME280;43675;50.030;21.952;2023-02-26T14:43:40;98457.14;;;0.33;71.34
57847;BME280;43675;50.030;21.952;2023-02-26T14:46:09;98462.91;;;0.40;71.62
57847;BME280;43675;50.030;21.952;2023-02-26T14:48:37;98467.02;;;0.45;71.85
57847;BME280;43675;50.030;21.952;2023-02-26T14:51:17;98471.36;;;0.47;71.87
57847;BME280;43675;50.030;21.952;2023-02-26T14:56:30;98470.18;;;0.38;72.31
57847;BME280;43675;50.030;21.952;2023-02-26T14:59:07;98471.95;;;0.19;72.89
57847;BME280;43675;50.030;21.952;2023-02-26T15:15:44;98506.02;;;-0.22;74.56
57847;BME280;43675;50.030;21.952;2023-02-26T15:19:00;98506.66;;;-0.25;74.79
57847;BME280;43675;50.030;21.952;2023-02-26T15:21:51;98507.05;;;-0.24;74.75
57847;BME280;43675;50.030;21.952;2023-02-26T15:24:20;98502.67;;;-0.21;74.58
57847;BME280;43675;50.030;21.952;2023-02-26T15:26:50;98506.53;;;-0.22;74.63
57847;BME280;43675;50.030;21.952;2023-02-26T15:29:21;98508.10;;;-0.26;74.71
57847;BME280;43675;50.030;21.952;2023-02-26T15:31:56;98515.84;;;-0.24;74.72
57847;BME280;43675;50.030;21.952;2023-02-26T15:34:23;98515.30;;;-0.22;74.69
57847;BME280;43675;50.030;21.952;2023-02-26T15:36:50;98513.49;;;-0.11;74.68
57847;BME280;43675;50.030;21.952;2023-02-26T15:39:18;98509.61;;;0.01;74.43
57847;BME280;43675;50.030;21.952;2023-02-26T15:41:46;98523.20;;;0.12;74.14
57847;BME280;43675;50.030;21.952;2023-02-26T15:44:28;98529.14;;;0.19;74.07
57847;BME280;43675;50.030;21.952;2023-02-26T15:46:58;98535.46;;;0.22;73.89
57847;BME280;43675;50.030;21.952;2023-02-26T15:49:49;98542.10;;;0.26;73.72
57847;BME280;43675;50.030;21.952;2023-02-26T15:52:21;98543.13;;;0.25;73.58
57847;BME280;43675;50.030;21.952;2023-02-26T15:54:53;98550.73;;;0.11;73.56
57847;BME280;43675;50.030;21.952;2023-02-26T15:57:22;98558.82;;;0.09;73.50
57847;BME280;43675;50.030;21.952;2023-02-26T15:59:52;98565.32;;;0.02;73.65
57847;BME280;43675;50.030;21.952;2023-02-26T16:02:29;98570.81;;;-0.09;73.75
57847;BME280;43675;50.030;21.952;2023-02-26T16:04:56;98576.20;;;-0.17;73.90
57847;BME280;43675;50.030;21.952;2023-02-26T16:07:23;98579.15;;;-0.10;73.94
57847;BME280;43675;50.030;21.952;2023-02-26T16:09:52;98589.06;;;0.00;73.69
57847;BME280;43675;50.030;21.952;2023-02-26T16:12:33;98590.48;;;0.07;73.46
57847;BME280;43675;50.030;21.952;2023-02-26T16:15:05;98601.02;;;0.09;73.04
57847;BME280;43675;50.030;21.952;2023-02-26T16:17:37;98601.98;;;0.10;73.12